Startpagina
METAR-TAF:

METAR-TAF

Vliegvelden :

Locarno, Zwitserland

breedte: 46-09-55N, lengte: 8-52-40E, hoogte: 198 m

Actueel weer

Dit bericht is 29 minuten geleden gemaakt, om 16:20 UTC
Wind 7 kt uit het noordwesten, variërend tussen het westen en het noorden
Temperatuur 8°C
Vochtigheid 31%
Druk 1003 hPa
Zicht 10 km of meer
Weinig wolken op 5900 ft

METAR: LSZL 261620Z AUTO 31007KT 260V350 9999NDV FEW059 08/M08 Q1003 RMK

Tijdstip: 17:49 (16:49 UTC)

Verwachting

Dit bericht is 5 uur en het 24 minuten geleden gemaakt, om 11:25 UTC
Verwachting geldig van 26 om 12 UTC tot 26 om 21 UTC
Wind 3 kt uit variabele richting
Zicht: 8000 m
Weinig wolken op 1000 ft
Gebroken wolken op 7000 ft
Tijdelijke
van 26 om 12 UTC tot 26 om 19 UTC
Wind 12 kt uit het oosten met uitschieters tot 30 kt
Kans 40% :
Tijdelijke
van 26 om 12 UTC tot 26 om 21 UTC
Zicht 10 km of meer
geen wolken onder 1500 m en geen cumulonimbus

TAF: LSZL 261125Z 2612/2621 VRB03KT 8000 FEW010 BKN070 TEMPO 2612/2619 08012G30KT PROB40 TEMPO 2612/2621 CAVOK

Waarnemingen en weersverwachtingen van meer dan 4000 vliegvelden (METAR en TAF).

De beschikbare stations zijn de gele en rode punten op de kaart.

Ga met uw muis naar het station om de naam te zien.

Klik dan om waarnemingen en weersverwachtingen te zien.

kaart wijzigen: klik op de groene knoppen met een zwart kruis om in te zoomen, op de groene knop met een streepje om uit te zoomen of op de groene pijlen voor aangrenzende kaarten.


METAR-TAF: